DLH443 KDTW-EDDF
Flight info
| Callsign | DLH443 |
|---|---|
| Flight time | N/A |
| Altitude | 37000 |
| Route | ZETTR4 DUTEL DCT YXI DCT BAREE N447B ELSIR/M079F390 DCT 50N050W 52N040W 54N030W 55N020W DCT RESNO DCT NETKI/N0445F390 DCT REVNU DCT MORAG DCT NUCHU L607 KONAN UL607 SPI T180 NIVNU T847 IMCOM IMCOM1A |
| Aircraft | A343/H-SDE2E3FGHIJ4J5M1RWXY/LB1D1 |
Departure
| Time | 2026-05-04 10:06 |
|---|---|
| Airport | Detroit Metropolitan Wayne County Airport (KDTW) |
Arrival
| Time | N/A |
|---|---|
| Airport | Frankfurt Main Airport (EDDF) |
| Time | Latitude | Longitude | Altitude | Speed | Heading |
|---|---|---|---|---|---|
| 2026-05-04 09:49 | 42.22200 | -83.35090 | 650 ft | 0 kts | 349° |
| 2026-05-04 09:53 | 42.22191 | -83.35088 | 652 ft | 3 kts | 349° |
| 2026-05-04 09:54 | 42.22174 | -83.35084 | 652 ft | 3 kts | 350° |
| 2026-05-04 09:54 | 42.22154 | -83.35081 | 654 ft | 3 kts | 359° |
| 2026-05-04 09:54 | 42.22134 | -83.35081 | 651 ft | 3 kts | 0° |
| 2026-05-04 09:54 | 42.22115 | -83.35080 | 652 ft | 3 kts | 348° |
| 2026-05-04 09:55 | 42.22099 | -83.35072 | 652 ft | 3 kts | 306° |
| 2026-05-04 09:55 | 42.22093 | -83.35050 | 653 ft | 3 kts | 275° |
| 2026-05-04 09:55 | 42.22091 | -83.35023 | 651 ft | 3 kts | 275° |
| 2026-05-04 09:55 | 42.22090 | -83.35015 | 652 ft | 0 kts | 275° |
| 2026-05-04 09:58 | 42.22090 | -83.35016 | 650 ft | 1 kts | 275° |
| 2026-05-04 09:58 | 42.22092 | -83.35034 | 652 ft | 3 kts | 275° |
| 2026-05-04 10:00 | 42.21825 | -83.35268 | 649 ft | 8 kts | 94° |
| 2026-05-04 10:00 | 42.21826 | -83.35158 | 650 ft | 14 kts | 89° |
| 2026-05-04 10:02 | 42.22145 | -83.34288 | 649 ft | 21 kts | 29° |
| 2026-05-04 10:04 | 42.22854 | -83.33760 | 649 ft | 6 kts | 46° |
| 2026-05-04 10:04 | 42.22850 | -83.33697 | 648 ft | 9 kts | 111° |
| 2026-05-04 10:04 | 42.22816 | -83.33641 | 649 ft | 6 kts | 159° |
| 2026-05-04 10:04 | 42.22790 | -83.33648 | 649 ft | 3 kts | 201° |
| 2026-05-04 10:05 | 42.22774 | -83.33659 | 649 ft | 2 kts | 207° |
| 2026-05-04 10:05 | 42.22693 | -83.33715 | 654 ft | 33 kts | 208° |
| 2026-05-04 10:05 | 42.22337 | -83.33978 | 650 ft | 82 kts | 208° |
| 2026-05-04 10:05 | 42.21706 | -83.34444 | 651 ft | 123 kts | 208° |
| 2026-05-04 10:06 | 42.20872 | -83.35058 | 829 ft | 140 kts | 208° |
| 2026-05-04 10:06 | 42.19991 | -83.35619 | 1168 ft | 146 kts | 201° |
| 2026-05-04 10:06 | 42.18964 | -83.35886 | 1581 ft | 153 kts | 193° |
| 2026-05-04 10:08 | 42.10480 | -83.32815 | 3924 ft | 269 kts | 134° |
| 2026-05-04 10:08 | 42.09646 | -83.30524 | 4557 ft | 283 kts | 99° |
| 2026-05-04 10:08 | 42.09616 | -83.27849 | 5243 ft | 288 kts | 85° |
| 2026-05-04 10:08 | 42.09775 | -83.25169 | 5946 ft | 293 kts | 84° |
| 2026-05-04 10:09 | 42.10131 | -83.22448 | 6651 ft | 296 kts | 75° |
| 2026-05-04 10:09 | 42.10619 | -83.19730 | 7367 ft | 299 kts | 75° |
| 2026-05-04 10:09 | 42.11136 | -83.16993 | 8070 ft | 303 kts | 71° |
| 2026-05-04 10:09 | 42.12074 | -83.14472 | 8736 ft | 301 kts | 45° |
| 2026-05-04 10:10 | 42.13658 | -83.12756 | 9464 ft | 294 kts | 26° |
| 2026-05-04 10:10 | 42.15445 | -83.11391 | 10118 ft | 297 kts | 24° |
| 2026-05-04 10:10 | 42.17296 | -83.10031 | 10489 ft | 310 kts | 24° |
| 2026-05-04 10:10 | 42.19237 | -83.08594 | 10783 ft | 325 kts | 24° |
| 2026-05-04 10:11 | 42.20570 | -83.07599 | 10991 ft | 335 kts | 25° |
| 2026-05-04 10:11 | 42.23366 | -83.05493 | 11403 ft | 352 kts | 25° |
| 2026-05-04 10:11 | 42.25525 | -83.03857 | 11893 ft | 359 kts | 25° |
| 2026-05-04 10:11 | 42.27759 | -83.02319 | 12449 ft | 360 kts | 17° |
| 2026-05-04 10:12 | 42.30120 | -83.01379 | 13041 ft | 359 kts | 8° |
| 2026-05-04 10:12 | 42.32567 | -83.00662 | 13659 ft | 361 kts | 7° |
| 2026-05-04 10:12 | 42.35041 | -82.99962 | 14210 ft | 364 kts | 7° |
| 2026-05-04 10:12 | 42.37534 | -82.99254 | 14788 ft | 366 kts | 7° |
| 2026-05-04 10:13 | 42.40027 | -82.98541 | 15386 ft | 368 kts | 7° |
| 2026-05-04 10:13 | 42.41691 | -82.98063 | 15763 ft | 370 kts | 7° |
| 2026-05-04 10:13 | 42.44226 | -82.97332 | 16331 ft | 372 kts | 7° |
| 2026-05-04 10:13 | 42.46765 | -82.96600 | 16908 ft | 374 kts | 7° |
| 2026-05-04 10:14 | 42.49321 | -82.95860 | 17468 ft | 376 kts | 7° |
| 2026-05-04 10:14 | 42.51897 | -82.95114 | 18042 ft | 379 kts | 7° |
| 2026-05-04 10:16 | 42.70335 | -82.89756 | 21351 ft | 395 kts | 7° |
| 2026-05-04 10:16 | 42.73039 | -82.88967 | 21808 ft | 398 kts | 6° |
| 2026-05-04 10:16 | 42.75721 | -82.88172 | 22243 ft | 401 kts | 8° |
| 2026-05-04 10:16 | 42.78403 | -82.86976 | 22670 ft | 411 kts | 19° |
| 2026-05-04 10:17 | 42.80887 | -82.84948 | 23106 ft | 423 kts | 32° |
| 2026-05-04 10:17 | 42.83152 | -82.82324 | 23463 ft | 430 kts | 36° |